Time,TemperatureF,DewpointF,PressureIn,WindDirection,WindDirectionDegrees,WindSpeedMPH,WindSpeedGustMPH,Humidity,HourlyPrecipIn,Conditions,Clouds,dailyrainin,SoftwareType,DateUTC
2013-07-04 00:03:00,73.3,67.1,30.04,South,191,3.0,4.0,81,0.00,,,0.00,Wunderground v.1.15,2013-07-04 04:03:00,
2013-07-04 00:13:00,72.9,67.1,30.05,SSW,210,3.0,4.0,82,0.00,,,0.00,Wunderground v.1.15,2013-07-04 04:13:00,
2013-07-04 00:23:00,72.6,67.1,30.04,SSW,203,2.0,2.0,83,0.00,,,0.00,Wunderground v.1.15,2013-07-04 04:23:00,
2013-07-04 00:28:00,72.6,66.8,30.04,SSW,199,2.0,3.0,82,0.00,,,0.00,Wunderground v.1.15,2013-07-04 04:28:00,
2013-07-04 00:33:00,72.8,67.0,30.04,SSW,196,3.0,3.0,82,0.00,,,0.00,Wunderground v.1.15,2013-07-04 04:33:00,
2013-07-04 00:38:00,72.8,67.0,30.04,SSW,195,3.0,3.0,82,0.00,,,0.00,Wunderground v.1.15,2013-07-04 04:38:00,
2013-07-04 00:48:00,72.1,67.0,30.04,SSW,197,1.0,1.0,84,0.00,,,0.00,Wunderground v.1.15,2013-07-04 04:48:00,
2013-07-04 00:53:00,71.9,66.8,30.04,SSW,197,1.0,1.0,84,0.00,,,0.00,Wunderground v.1.15,2013-07-04 04:53:00,
2013-07-04 00:58:00,71.7,66.6,30.03,SSW,197,0.0,0.0,84,0.00,,,0.00,Wunderground v.1.15,2013-07-04 04:58:00,
2013-07-04 01:08:00,71.5,66.8,30.04,SSW,197,0.0,0.0,85,0.00,,,0.00,Wunderground v.1.15,2013-07-04 05:08:00,
2013-07-04 01:13:00,71.2,66.8,30.04,SSW,197,0.0,1.0,86,0.00,,,0.00,Wunderground v.1.15,2013-07-04 05:13:00,
2013-07-04 01:23:00,70.7,66.6,30.04,SSW,197,0.0,0.0,87,0.00,,,0.00,Wunderground v.1.15,2013-07-04 05:23:00,
2013-07-04 01:33:00,70.3,66.2,30.04,SSW,197,0.0,1.0,87,0.00,,,0.00,Wunderground v.1.15,2013-07-04 05:33:00,
2013-07-04 01:43:00,70.1,66.0,30.04,SSW,197,0.0,0.0,87,0.00,,,0.00,Wunderground v.1.15,2013-07-04 05:43:00,
2013-07-04 01:53:00,69.9,65.9,30.04,SSW,197,0.0,0.0,87,0.00,,,0.00,Wunderground v.1.15,2013-07-04 05:53:00,
2013-07-04 01:58:00,69.8,66.1,30.04,SSW,197,0.0,0.0,88,0.00,,,0.00,Wunderground v.1.15,2013-07-04 05:58:00,
2013-07-04 02:08:00,69.8,66.1,30.04,SSW,197,0.0,1.0,88,0.00,,,0.00,Wunderground v.1.15,2013-07-04 06:08:00,
2013-07-04 02:18:00,70.2,66.5,30.04,SSW,196,1.0,2.0,88,0.00,,,0.00,Wunderground v.1.15,2013-07-04 06:18:00,
2013-07-04 02:28:00,70.6,66.9,30.05,SSE,155,1.0,1.0,88,0.00,,,0.00,Wunderground v.1.15,2013-07-04 06:28:00,
2013-07-04 02:38:00,71.0,66.9,30.05,SE,146,2.0,2.0,87,0.00,,,0.00,Wunderground v.1.15,2013-07-04 06:38:00,
2013-07-04 02:48:00,71.3,66.9,30.05,SE,146,1.0,1.0,86,0.00,,,0.00,Wunderground v.1.15,2013-07-04 06:48:00,
2013-07-04 02:58:00,71.6,67.2,30.05,SSE,155,3.0,8.0,86,0.00,,,0.00,Wunderground v.1.15,2013-07-04 06:58:00,
2013-07-04 03:08:00,72.1,67.3,30.04,South,180,5.0,5.0,85,0.00,,,0.00,Wunderground v.1.15,2013-07-04 07:08:00,
2013-07-04 03:18:00,72.0,67.2,30.04,SSE,152,4.0,4.0,85,0.00,,,0.00,Wunderground v.1.15,2013-07-04 07:18:00,
2013-07-04 03:28:00,71.9,67.5,30.04,SSE,157,4.0,4.0,86,0.00,,,0.00,Wunderground v.1.15,2013-07-04 07:28:00,
2013-07-04 03:38:00,71.9,67.8,30.04,SSE,157,5.0,7.0,87,0.00,,,0.00,Wunderground v.1.15,2013-07-04 07:38:00,
2013-07-04 03:48:00,71.7,68.0,30.05,SSE,168,4.0,4.0,88,0.00,,,0.00,Wunderground v.1.15,2013-07-04 07:48:00,
2013-07-04 03:58:00,71.6,68.2,30.05,South,178,5.0,5.0,89,0.00,,,0.00,Wunderground v.1.15,2013-07-04 07:58:00,
2013-07-04 04:08:00,71.6,68.2,30.05,South,189,5.0,5.0,89,0.00,,,0.00,Wunderground v.1.15,2013-07-04 08:08:00,
2013-07-04 04:18:00,71.5,68.1,30.04,South,178,5.0,5.0,89,0.00,,,0.00,Wunderground v.1.15,2013-07-04 08:18:00,
2013-07-04 04:28:00,71.2,67.8,30.05,South,171,4.0,5.0,89,0.00,,,0.00,Wunderground v.1.15,2013-07-04 08:28:00,
2013-07-04 04:38:00,71.1,67.7,30.05,SSE,167,4.0,4.0,89,0.00,,,0.00,Wunderground v.1.15,2013-07-04 08:38:00,
2013-07-04 04:48:00,70.9,67.8,30.05,South,180,3.0,3.0,90,0.00,,,0.00,Wunderground v.1.15,2013-07-04 08:48:00,
2013-07-04 04:58:00,70.8,67.7,30.05,South,187,3.0,5.0,90,0.00,,,0.00,Wunderground v.1.15,2013-07-04 08:58:00,
2013-07-04 05:08:00,70.7,67.6,30.05,South,190,4.0,4.0,90,0.00,,,0.00,Wunderground v.1.15,2013-07-04 09:08:00,
2013-07-04 05:18:00,70.6,67.8,30.05,South,169,3.0,4.0,91,0.00,,,0.00,Wunderground v.1.15,2013-07-04 09:18:00,
2013-07-04 05:28:00,70.5,67.7,30.05,South,181,3.0,5.0,91,0.00,,,0.00,Wunderground v.1.15,2013-07-04 09:28:00,
2013-07-04 05:38:00,70.5,67.7,30.06,South,186,4.0,5.0,91,0.00,,,0.00,Wunderground v.1.15,2013-07-04 09:38:00,
2013-07-04 05:48:00,70.4,67.6,30.06,SSE,157,4.0,5.0,91,0.00,,,0.00,Wunderground v.1.15,2013-07-04 09:48:00,
2013-07-04 05:53:00,70.4,67.6,30.06,South,178,5.0,6.0,91,0.00,,,0.00,Wunderground v.1.15,2013-07-04 09:53:00,
2013-07-04 05:58:00,70.3,67.5,30.06,South,190,5.0,5.0,91,0.00,,,0.00,Wunderground v.1.15,2013-07-04 09:58:00,
2013-07-04 06:08:00,70.2,67.4,30.06,South,190,5.0,6.0,91,0.00,,,0.00,Wunderground v.1.15,2013-07-04 10:08:00,
2013-07-04 06:18:00,70.1,67.3,30.07,SSW,192,4.0,6.0,91,0.00,,,0.00,Wunderground v.1.15,2013-07-04 10:18:00,
2013-07-04 06:28:00,70.0,67.3,30.07,South,181,4.0,4.0,91,0.00,,,0.00,Wunderground v.1.15,2013-07-04 10:28:00,
2013-07-04 06:33:00,69.9,67.2,30.07,South,173,4.0,4.0,91,0.00,,,0.00,Wunderground v.1.15,2013-07-04 10:33:00,
2013-07-04 06:43:00,69.9,67.2,30.07,SSW,192,3.0,3.0,91,0.00,,,0.00,Wunderground v.1.15,2013-07-04 10:43:00,
2013-07-04 06:48:00,69.8,67.1,30.07,South,185,3.0,4.0,91,0.00,,,0.00,Wunderground v.1.15,2013-07-04 10:48:00,
2013-07-04 06:58:00,69.7,67.0,30.07,South,190,3.0,3.0,91,0.00,,,0.00,Wunderground v.1.15,2013-07-04 10:58:00,
2013-07-04 07:08:00,69.7,67.0,30.07,South,190,3.0,3.0,91,0.00,,,0.00,Wunderground v.1.15,2013-07-04 11:08:00,
2013-07-04 07:13:00,69.8,67.1,30.07,South,189,3.0,4.0,91,0.00,,,0.00,Wunderground v.1.15,2013-07-04 11:13:00,
2013-07-04 07:23:00,70.1,67.7,30.08,South,189,3.0,5.0,92,0.00,,,0.00,Wunderground v.1.15,2013-07-04 11:23:00,
2013-07-04 07:28:00,70.2,67.4,30.08,SSW,205,3.0,3.0,91,0.00,,,0.00,Wunderground v.1.15,2013-07-04 11:28:00,
2013-07-04 07:38:00,70.3,67.5,30.08,SSW,211,4.0,4.0,91,0.00,,,0.00,Wunderground v.1.15,2013-07-04 11:38:00,
2013-07-04 07:43:00,70.4,67.6,30.08,SSW,196,4.0,4.0,91,0.00,,,0.00,Wunderground v.1.15,2013-07-04 11:43:00,
2013-07-04 07:53:00,70.4,67.6,30.08,SSW,200,4.0,4.0,91,0.00,,,0.00,Wunderground v.1.15,2013-07-04 11:53:00,
2013-07-04 07:58:00,70.5,67.4,30.08,SSW,195,4.0,4.0,90,0.00,,,0.00,Wunderground v.1.15,2013-07-04 11:58:00,
2013-07-04 08:08:00,70.6,67.8,30.08,SSW,205,4.0,4.0,91,0.00,,,0.00,Wunderground v.1.15,2013-07-04 12:08:00,
2013-07-04 08:13:00,70.8,67.7,30.09,SSW,200,3.0,4.0,90,0.00,,,0.00,Wunderground v.1.15,2013-07-04 12:13:00,
2013-07-04 08:23:00,71.0,67.9,30.08,SSW,198,4.0,4.0,90,0.00,,,0.00,Wunderground v.1.15,2013-07-04 12:23:00,
2013-07-04 08:33:00,71.2,67.8,30.09,SSW,202,5.0,6.0,89,0.00,,,0.00,Wunderground v.1.15,2013-07-04 12:33:00,
2013-07-04 08:43:00,71.5,68.1,30.09,SSW,198,4.0,5.0,89,0.00,,,0.00,Wunderground v.1.15,2013-07-04 12:43:00,
2013-07-04 08:53:00,71.9,68.5,30.09,SSW,207,3.0,4.0,89,0.00,,,0.00,Wunderground v.1.15,2013-07-04 12:53:00,
2013-07-04 08:58:00,71.9,68.2,30.09,SSW,196,3.0,4.0,88,0.00,,,0.00,Wunderground v.1.15,2013-07-04 12:58:00,
2013-07-04 09:08:00,72.5,68.7,30.09,SW,222,3.0,3.0,88,0.00,,,0.00,Wunderground v.1.15,2013-07-04 13:08:00,
2013-07-04 09:18:00,73.1,69.0,30.09,SW,230,4.0,4.0,87,0.00,,,0.00,Wunderground v.1.15,2013-07-04 13:18:00,
2013-07-04 09:28:00,73.5,68.7,30.10,SW,215,4.0,4.0,85,0.00,,,0.00,Wunderground v.1.15,2013-07-04 13:28:00,
2013-07-04 09:38:00,74.0,69.2,30.09,SSW,207,3.0,3.0,85,0.00,,,0.00,Wunderground v.1.15,2013-07-04 13:38:00,
2013-07-04 09:43:00,74.2,69.4,30.09,SW,217,3.0,3.0,85,0.00,,,0.00,Wunderground v.1.15,2013-07-04 13:43:00,
2013-07-04 09:53:00,74.3,69.1,30.09,SSW,213,3.0,3.0,84,0.00,,,0.00,Wunderground v.1.15,2013-07-04 13:53:00,
2013-07-04 09:58:00,74.7,69.5,30.09,SW,233,3.0,3.0,84,0.00,,,0.00,Wunderground v.1.15,2013-07-04 13:58:00,
2013-07-04 10:08:00,74.9,69.4,30.09,SW,236,3.0,3.0,83,0.00,,,0.00,Wunderground v.1.15,2013-07-04 14:08:00,
2013-07-04 10:18:00,75.4,69.9,30.09,West,259,3.0,6.0,83,0.00,,,0.00,Wunderground v.1.15,2013-07-04 14:18:00,
2013-07-04 10:23:00,75.4,69.2,30.09,West,274,4.0,6.0,81,0.00,,,0.00,Wunderground v.1.15,2013-07-04 14:23:00,
2013-07-04 10:33:00,75.5,68.5,30.09,West,261,4.0,4.0,79,0.00,,,0.00,Wunderground v.1.15,2013-07-04 14:33:00,
2013-07-04 10:43:00,75.7,68.7,30.09,West,267,5.0,6.0,79,0.00,,,0.00,Wunderground v.1.15,2013-07-04 14:43:00,
2013-07-04 10:53:00,75.4,68.8,30.09,SW,227,4.0,5.0,80,0.00,,,0.00,Wunderground v.1.15,2013-07-04 14:53:00,
2013-07-04 10:58:00,75.3,68.3,30.09,SW,229,4.0,4.0,79,0.00,,,0.00,Wunderground v.1.15,2013-07-04 14:58:00,
2013-07-04 11:08:00,75.2,68.2,30.09,West,270,3.0,4.0,79,0.00,,,0.00,Wunderground v.1.15,2013-07-04 15:08:00,
2013-07-04 11:13:00,75.5,68.2,30.09,WSW,247,3.0,4.0,78,0.00,,,0.00,Wunderground v.1.15,2013-07-04 15:13:00,
2013-07-04 11:23:00,75.8,68.4,30.09,West,272,3.0,4.0,78,0.00,,,0.00,Wunderground v.1.15,2013-07-04 15:23:00,
2013-07-04 11:33:00,76.9,68.8,30.09,SW,218,4.0,4.0,76,0.00,,,0.00,Wunderground v.1.15,2013-07-04 15:33:00,
2013-07-04 11:43:00,76.5,68.4,30.10,NW,319,3.0,3.0,76,0.00,,,0.00,Wunderground v.1.15,2013-07-04 15:43:00,
2013-07-04 11:53:00,76.6,68.1,30.10,WNW,288,4.0,4.0,75,0.00,,,0.00,Wunderground v.1.15,2013-07-04 15:53:00,
2013-07-04 11:58:00,76.3,69.3,30.09,WSW,250,4.0,4.0,79,0.00,,,0.00,Wunderground v.1.15,2013-07-04 15:58:00,
2013-07-04 12:08:00,77.6,69.8,30.09,WSW,252,3.0,6.0,77,0.00,,,0.00,Wunderground v.1.15,2013-07-04 16:08:00,
2013-07-04 12:13:00,77.6,68.7,30.09,WSW,238,3.0,6.0,74,0.00,,,0.00,Wunderground v.1.15,2013-07-04 16:13:00,
2013-07-04 12:23:00,78.2,70.0,30.09,WSW,244,4.0,5.0,76,0.00,,,0.00,Wunderground v.1.15,2013-07-04 16:23:00,
2013-07-04 12:33:00,78.6,68.8,30.09,WSW,255,5.0,6.0,72,0.00,,,0.00,Wunderground v.1.15,2013-07-04 16:33:00,
2013-07-04 12:43:00,78.8,67.3,30.09,SSW,212,4.0,5.0,68,0.00,,,0.00,Wunderground v.1.15,2013-07-04 16:43:00,
2013-07-04 12:48:00,79.0,69.2,30.09,West,262,3.0,3.0,72,0.00,,,0.00,Wunderground v.1.15,2013-07-04 16:48:00,
2013-07-04 12:58:00,78.6,68.4,30.09,West,265,6.0,7.0,71,0.00,,,0.00,Wunderground v.1.15,2013-07-04 16:58:00,
2013-07-04 13:08:00,78.7,68.5,30.08,SW,229,4.0,4.0,71,0.00,,,0.00,Wunderground v.1.15,2013-07-04 17:08:00,
2013-07-04 13:13:00,78.8,67.8,30.08,West,260,2.0,4.0,69,0.00,,,0.00,Wunderground v.1.15,2013-07-04 17:13:00,
2013-07-04 13:23:00,78.8,67.8,30.08,SW,235,4.0,4.0,69,0.00,,,0.00,Wunderground v.1.15,2013-07-04 17:23:00,
2013-07-04 13:33:00,78.2,69.2,30.08,SW,229,4.0,5.0,74,0.00,,,0.00,Wunderground v.1.15,2013-07-04 17:33:00,
2013-07-04 13:43:00,78.7,68.5,30.08,West,278,4.0,4.0,71,0.00,,,0.00,Wunderground v.1.15,2013-07-04 17:43:00,
2013-07-04 13:48:00,79.3,69.1,30.08,WSW,242,4.0,4.0,71,0.00,,,0.00,Wunderground v.1.15,2013-07-04 17:48:00,
2013-07-04 13:58:00,79.8,68.7,30.07,WSW,256,5.0,5.0,69,0.00,,,0.00,Wunderground v.1.15,2013-07-04 17:58:00,
2013-07-04 14:08:00,80.1,69.0,30.07,SW,223,3.0,4.0,69,0.00,,,0.00,Wunderground v.1.15,2013-07-04 18:08:00,
2013-07-04 14:13:00,80.6,69.5,30.07,WSW,239,4.0,4.0,69,0.00,,,0.00,Wunderground v.1.15,2013-07-04 18:13:00,
2013-07-04 14:18:00,80.5,69.4,30.07,WSW,244,4.0,4.0,69,0.00,,,0.00,Wunderground v.1.15,2013-07-04 18:18:00,
2013-07-04 14:23:00,80.2,67.8,30.07,SW,225,3.0,4.0,66,0.00,,,0.00,Wunderground v.1.15,2013-07-04 18:23:00,
2013-07-04 14:33:00,80.3,69.6,30.07,WSW,244,4.0,7.0,70,0.00,,,0.00,Wunderground v.1.15,2013-07-04 18:33:00,
2013-07-04 14:43:00,80.8,69.2,30.07,WSW,244,3.0,7.0,68,0.00,,,0.00,Wunderground v.1.15,2013-07-04 18:43:00,
2013-07-04 14:53:00,80.8,67.0,30.06,West,263,5.0,6.0,63,0.00,,,0.00,Wunderground v.1.15,2013-07-04 18:53:00,
2013-07-04 14:58:00,81.5,69.0,30.06,SW,227,3.0,3.0,66,0.00,,,0.00,Wunderground v.1.15,2013-07-04 18:58:00,
2013-07-04 15:08:00,81.3,68.0,30.07,West,271,5.0,5.0,64,0.00,,,0.00,Wunderground v.1.15,2013-07-04 19:08:00,
2013-07-04 15:13:00,81.2,68.8,30.06,West,269,5.0,5.0,66,0.00,,,0.00,Wunderground v.1.15,2013-07-04 19:13:00,
2013-07-04 15:18:00,80.7,68.3,30.06,West,273,5.0,5.0,66,0.00,,,0.00,Wunderground v.1.15,2013-07-04 19:18:00,
2013-07-04 15:27:00,80.9,69.8,30.06,WNW,301,4.0,6.0,69,0.00,,,0.00,Wunderground v.1.15,2013-07-04 19:27:00,
2013-07-04 15:37:00,80.9,69.3,30.06,WNW,292,5.0,6.0,68,0.00,,,0.00,Wunderground v.1.15,2013-07-04 19:37:00,
2013-07-04 15:47:00,80.0,68.1,30.06,WSW,253,5.0,6.0,67,0.00,,,0.00,Wunderground v.1.15,2013-07-04 19:47:00,
2013-07-04 15:57:00,79.3,68.2,30.06,WSW,255,5.0,5.0,69,0.00,,,0.00,Wunderground v.1.15,2013-07-04 19:57:00,
2013-07-04 16:07:00,78.5,68.7,30.06,WNW,285,3.0,3.0,72,0.00,,,0.00,Wunderground v.1.15,2013-07-04 20:07:00,
2013-07-04 16:17:00,77.8,69.6,30.06,East,90,2.0,5.0,76,0.00,,,0.00,Wunderground v.1.15,2013-07-04 20:17:00,
2013-07-04 16:27:00,75.9,68.9,30.07,South,178,5.0,9.0,79,0.00,,,0.00,Wunderground v.1.15,2013-07-04 20:27:00,
2013-07-04 16:37:00,74.3,67.7,30.07,SSE,159,8.0,9.0,80,0.00,,,0.00,Wunderground v.1.15,2013-07-04 20:37:00,
2013-07-04 16:42:00,73.4,67.6,30.07,South,177,8.0,9.0,82,1.69,,,0.03,Wunderground v.1.15,2013-07-04 20:42:00,
2013-07-04 16:52:00,72.4,67.6,30.07,SSE,160,3.0,5.0,85,0.13,,,0.07,Wunderground v.1.15,2013-07-04 20:52:00,
2013-07-04 16:57:00,72.0,67.6,30.07,SSE,157,3.0,3.0,86,0.06,,,0.07,Wunderground v.1.15,2013-07-04 20:57:00,
2013-07-04 17:07:00,72.0,68.2,30.06,SSE,156,3.0,5.0,88,0.00,,,0.07,Wunderground v.1.15,2013-07-04 21:07:00,
2013-07-04 17:12:00,72.0,68.6,30.06,SE,134,4.0,5.0,89,0.00,,,0.07,Wunderground v.1.15,2013-07-04 21:12:00,
2013-07-04 17:22:00,72.3,68.9,30.06,South,175,3.0,3.0,89,0.00,,,0.07,Wunderground v.1.15,2013-07-04 21:22:00,
2013-07-04 17:32:00,72.8,69.4,30.06,South,184,1.0,2.0,89,0.00,,,0.07,Wunderground v.1.15,2013-07-04 21:32:00,
2013-07-04 17:37:00,73.0,69.2,30.06,SSW,193,2.0,2.0,88,0.00,,,0.07,Wunderground v.1.15,2013-07-04 21:37:00,
2013-07-04 17:47:00,73.2,68.8,30.06,South,184,4.0,6.0,86,0.00,,,0.07,Wunderground v.1.15,2013-07-04 21:47:00,
2013-07-04 17:52:00,73.4,69.0,30.06,SSW,194,6.0,6.0,86,0.00,,,0.07,Wunderground v.1.15,2013-07-04 21:52:00,
2013-07-04 17:57:00,73.5,69.1,30.05,SW,219,5.0,5.0,86,0.00,,,0.07,Wunderground v.1.15,2013-07-04 21:57:00,
2013-07-04 18:07:00,73.3,68.9,30.05,South,180,3.0,4.0,86,0.00,,,0.07,Wunderground v.1.15,2013-07-04 22:07:00,
2013-07-04 18:17:00,73.2,69.1,30.05,SSW,196,4.0,4.0,87,0.00,,,0.07,Wunderground v.1.15,2013-07-04 22:17:00,
2013-07-04 18:22:00,73.2,68.8,30.05,SSW,202,4.0,4.0,86,0.00,,,0.07,Wunderground v.1.15,2013-07-04 22:22:00,
2013-07-04 18:32:00,73.2,69.1,30.04,South,169,3.0,3.0,87,0.00,,,0.07,Wunderground v.1.15,2013-07-04 22:32:00,
2013-07-04 18:42:00,73.3,69.2,30.04,South,174,3.0,4.0,87,0.00,,,0.07,Wunderground v.1.15,2013-07-04 22:42:00,
2013-07-04 18:52:00,73.4,69.3,30.03,South,178,4.0,5.0,87,0.00,,,0.07,Wunderground v.1.15,2013-07-04 22:52:00,
2013-07-04 18:57:00,73.5,69.1,30.04,SSW,208,4.0,4.0,86,0.00,,,0.07,Wunderground v.1.15,2013-07-04 22:57:00,
2013-07-04 19:07:00,73.4,69.3,30.04,SW,227,3.0,4.0,87,0.00,,,0.07,Wunderground v.1.15,2013-07-04 23:07:00,
2013-07-04 19:17:00,73.4,69.0,30.04,South,191,4.0,4.0,86,0.00,,,0.07,Wunderground v.1.15,2013-07-04 23:17:00,
2013-07-04 19:27:00,73.7,68.9,30.04,South,182,3.0,3.0,85,0.00,,,0.07,Wunderground v.1.15,2013-07-04 23:27:00,
2013-07-04 19:32:00,73.8,69.3,30.04,South,183,2.0,3.0,86,0.00,,,0.07,Wunderground v.1.15,2013-07-04 23:32:00,
2013-07-04 19:42:00,73.9,69.4,30.04,SSW,203,1.0,3.0,86,0.00,,,0.07,Wunderground v.1.15,2013-07-04 23:42:00,
2013-07-04 19:47:00,73.8,69.0,30.04,SW,220,2.0,2.0,85,0.00,,,0.07,Wunderground v.1.15,2013-07-04 23:47:00,
2013-07-04 19:57:00,73.9,69.1,30.04,SSW,192,3.0,3.0,85,0.00,,,0.07,Wunderground v.1.15,2013-07-04 23:57:00,
2013-07-04 20:07:00,73.8,69.0,30.05,South,180,3.0,3.0,85,0.00,,,0.07,Wunderground v.1.15,2013-07-05 00:07:00,
2013-07-04 20:17:00,73.7,68.9,30.05,SSW,193,3.0,5.0,85,0.00,,,0.07,Wunderground v.1.15,2013-07-05 00:17:00,
2013-07-04 20:22:00,73.5,69.1,30.05,South,176,3.0,5.0,86,0.00,,,0.07,Wunderground v.1.15,2013-07-05 00:22:00,
2013-07-04 20:32:00,73.3,68.9,30.05,South,190,3.0,4.0,86,0.00,,,0.07,Wunderground v.1.15,2013-07-05 00:32:00,
2013-07-04 20:42:00,73.1,69.0,30.05,SSE,168,3.0,4.0,87,0.00,,,0.07,Wunderground v.1.15,2013-07-05 00:42:00,
2013-07-04 20:47:00,73.1,69.0,30.05,South,182,3.0,3.0,87,0.00,,,0.07,Wunderground v.1.15,2013-07-05 00:47:00,
2013-07-04 20:57:00,72.9,68.8,30.05,South,178,2.0,3.0,87,0.00,,,0.07,Wunderground v.1.15,2013-07-05 00:57:00,
2013-07-04 21:07:00,72.8,68.7,30.05,South,181,3.0,3.0,87,0.00,,,0.07,Wunderground v.1.15,2013-07-05 01:07:00,
2013-07-04 21:17:00,72.7,68.9,30.05,South,169,3.0,4.0,88,0.00,,,0.07,Wunderground v.1.15,2013-07-05 01:17:00,
2013-07-04 21:27:00,72.3,68.5,30.04,SSE,165,3.0,3.0,88,0.00,,,0.07,Wunderground v.1.15,2013-07-05 01:27:00,
2013-07-04 21:37:00,72.1,68.3,30.04,SSE,166,1.0,1.0,88,0.00,,,0.07,Wunderground v.1.15,2013-07-05 01:37:00,
2013-07-04 21:42:00,72.0,68.2,30.04,SSE,166,1.0,1.0,88,0.00,,,0.07,Wunderground v.1.15,2013-07-05 01:42:00,
2013-07-04 21:52:00,71.8,68.4,30.04,SE,144,1.0,2.0,89,0.00,,,0.07,Wunderground v.1.15,2013-07-05 01:52:00,
2013-07-04 21:57:00,71.6,68.2,30.04,SE,140,2.0,2.0,89,0.00,,,0.07,Wunderground v.1.15,2013-07-05 01:57:00,
2013-07-04 22:07:00,71.4,68.0,30.05,SE,138,1.0,2.0,89,0.00,,,0.07,Wunderground v.1.15,2013-07-05 02:07:00,
2013-07-04 22:12:00,71.3,67.9,30.05,SE,139,2.0,2.0,89,0.00,,,0.07,Wunderground v.1.15,2013-07-05 02:12:00,
2013-07-04 22:22:00,71.0,67.6,30.06,WSW,254,1.0,3.0,89,0.00,,,0.07,Wunderground v.1.15,2013-07-05 02:22:00,
2013-07-04 22:32:00,70.4,67.3,30.06,WNW,283,3.0,3.0,90,0.00,,,0.07,Wunderground v.1.15,2013-07-05 02:32:00,
2013-07-04 22:37:00,70.4,67.6,30.07,WNW,282,1.0,1.0,91,0.00,,,0.07,Wunderground v.1.15,2013-07-05 02:37:00,
2013-07-04 22:47:00,70.3,67.5,30.07,WSW,253,0.0,0.0,91,0.00,,,0.07,Wunderground v.1.15,2013-07-05 02:47:00,
2013-07-04 22:52:00,70.4,67.6,30.07,WSW,253,0.0,0.0,91,0.00,,,0.07,Wunderground v.1.15,2013-07-05 02:52:00,
2013-07-04 22:57:00,70.4,67.6,30.07,WSW,253,0.0,0.0,91,0.00,,,0.07,Wunderground v.1.15,2013-07-05 02:57:00,
2013-07-04 23:07:00,70.3,67.5,30.07,WSW,253,0.0,0.0,91,0.00,,,0.07,Wunderground v.1.15,2013-07-05 03:07:00,
2013-07-04 23:17:00,70.3,67.5,30.07,WSW,253,0.0,0.0,91,0.00,,,0.07,Wunderground v.1.15,2013-07-05 03:17:00,
2013-07-04 23:22:00,70.3,67.5,30.07,WSW,253,0.0,0.0,91,0.00,,,0.07,Wunderground v.1.15,2013-07-05 03:22:00,
2013-07-04 23:32:00,70.3,67.5,30.07,WSW,253,0.0,0.0,91,0.00,,,0.07,Wunderground v.1.15,2013-07-05 03:32:00,
2013-07-04 23:42:00,70.3,67.5,30.07,WSW,253,0.0,0.0,91,0.00,,,0.07,Wunderground v.1.15,2013-07-05 03:42:00,
2013-07-04 23:47:00,70.3,67.5,30.07,WSW,253,0.0,0.0,91,0.00,,,0.07,Wunderground v.1.15,2013-07-05 03:47:00,
2013-07-04 23:57:00,70.3,67.5,30.07,WSW,253,0.0,0.0,91,0.00,,,0.07,Wunderground v.1.15,2013-07-05 03:57:00,